createdAt,value
2023-02-11T00:01:21.476Z,22.9875
2023-02-11T00:04:17.212Z,18.475
2023-02-11T00:07:17.235Z,13.1
2023-02-11T00:11:18.607Z,15.475
2023-02-11T00:14:17.304Z,18.1875
2023-02-11T00:17:17.392Z,12.8875
2023-02-11T00:21:18.475Z,15.875
2023-02-11T00:24:17.108Z,15.262500000000001
2023-02-11T00:27:17.210Z,16.825
2023-02-11T00:31:18.831Z,15.725
2023-02-11T00:34:17.491Z,15.6875
2023-02-11T00:37:17.169Z,13.475
2023-02-11T00:41:17.431Z,14.925
2023-02-11T00:44:16.853Z,11.774999999999999
2023-02-11T00:47:16.618Z,14.024999999999999
2023-02-11T00:51:16.386Z,16.625
2023-02-11T00:54:16.905Z,15.575000000000001
2023-02-11T00:57:16.761Z,17
2023-02-11T01:01:16.425Z,13.5
2023-02-11T01:04:16.636Z,11.725
2023-02-11T01:07:16.633Z,12.6375
2023-02-11T01:11:19.636Z,18.025
2023-02-11T01:14:16.938Z,15.65
2023-02-11T01:17:17.036Z,15.424999999999997
2023-02-11T01:21:16.752Z,17.9625
2023-02-11T01:24:16.937Z,16.625
2023-02-11T01:27:16.973Z,16.1875
2023-02-11T01:31:16.808Z,17.575
2023-02-11T01:34:17.241Z,14.1
2023-02-11T01:37:17.122Z,14.875
2023-02-11T01:41:17.297Z,14.5375
2023-02-11T01:44:27.224Z,11.149999999999999
2023-02-11T01:47:18.118Z,11.8875
2023-02-11T01:51:20.564Z,11.525
2023-02-11T02:01:23.561Z,14.9375
2023-02-11T02:04:18.930Z,14.4
2023-02-11T02:07:24.462Z,13.5125
2023-02-11T02:11:16.897Z,13.2
2023-02-11T02:14:17.963Z,11.5
2023-02-11T02:17:27.437Z,14.675
2023-02-11T02:21:58.088Z,12.55
2023-02-11T02:24:54.976Z,13.6375
2023-02-11T02:27:33.251Z,13.100000000000001
2023-02-11T02:31:40.307Z,12.8
2023-02-11T02:34:23.342Z,12.337500000000002
2023-02-11T02:37:21.040Z,10.3125
2023-02-11T02:41:21.420Z,13.625
2023-02-11T02:44:18.239Z,14.9375
2023-02-11T02:47:17.483Z,14.85
2023-02-11T02:51:33.773Z,13.162500000000001
2023-02-11T02:54:34.946Z,15.987499999999999
2023-02-11T02:57:28.502Z,13.875
2023-02-11T03:01:28.993Z,11.05
2023-02-11T03:04:25.590Z,12.375
2023-02-11T03:07:24.850Z,11.2
2023-02-11T03:11:19.690Z,11.649999999999999
2023-02-11T03:14:18.648Z,12.875
2023-02-11T03:17:17.693Z,11.9125
2023-02-11T03:21:18.949Z,14.125
2023-02-11T03:24:23.094Z,12.2875
2023-02-11T03:27:21.299Z,14.2375
2023-02-11T03:31:26.411Z,14.887500000000001
2023-02-11T03:34:25.543Z,13.462499999999999
2023-02-11T03:37:21.430Z,11.7
2023-02-11T03:41:20.897Z,15.962500000000002
2023-02-11T03:44:20.365Z,12.024999999999999
2023-02-11T03:47:21.605Z,14.687499999999998
2023-02-11T03:51:19.357Z,13.837500000000002
2023-02-11T03:54:23.254Z,10.525
2023-02-11T03:57:16.917Z,9.924999999999999
2023-02-11T04:01:16.298Z,10.1375
2023-02-11T04:04:17.329Z,12.5125
2023-02-11T04:07:16.587Z,14.3375
2023-02-11T04:11:16.710Z,12.95
2023-02-11T04:14:17.053Z,12.462499999999999
2023-02-11T04:17:17.201Z,11.4
2023-02-11T04:21:16.618Z,12.649999999999999
2023-02-11T04:24:17.365Z,12.475
2023-02-11T04:27:16.787Z,11.8125
2023-02-11T04:31:16.845Z,11.0125
2023-02-11T04:34:17.125Z,11.6875
2023-02-11T04:37:17.491Z,13.4875
2023-02-11T04:41:16.628Z,15.3375
2023-02-11T04:44:16.860Z,13.275
2023-02-11T04:47:17.061Z,10.975
2023-02-11T04:51:16.691Z,11.3
2023-02-11T04:54:17.357Z,8.975000000000001
2023-02-11T04:57:17.069Z,12.0875
2023-02-11T05:01:16.690Z,10.9
2023-02-11T05:04:17.360Z,11.675
2023-02-11T05:07:16.872Z,10.5125
2023-02-11T05:11:18.142Z,13.6875
2023-02-11T05:14:16.575Z,11.9625
2023-02-11T05:17:16.667Z,12.837499999999999
2023-02-11T05:21:18.190Z,17.725
2023-02-11T05:24:16.588Z,8.625
2023-02-11T05:27:16.700Z,10.325
2023-02-11T05:31:17.387Z,10.537500000000001
2023-02-11T05:34:16.632Z,10.600000000000001
2023-02-11T05:37:16.807Z,9.912500000000001
2023-02-11T05:41:16.398Z,11.1625
2023-02-11T05:44:16.859Z,9.5875
2023-02-11T05:47:16.879Z,12.537500000000001
2023-02-11T05:51:16.750Z,11.6375
2023-02-11T05:54:17.390Z,12.55
2023-02-11T05:57:17.833Z,10.375
2023-02-11T06:01:16.786Z,8.8375
2023-02-11T06:04:16.919Z,8.7
2023-02-11T06:07:17.888Z,11.125
2023-02-11T06:11:17.062Z,11.9625
2023-02-11T06:14:16.890Z,9.524999999999999
2023-02-11T06:17:16.840Z,9.6875
2023-02-11T06:21:16.515Z,9.7125
2023-02-11T06:24:28.551Z,7.137499999999999
2023-02-11T06:27:17.892Z,11.674999999999999
2023-02-11T06:31:18.872Z,10.712499999999999
2023-02-11T06:34:17.434Z,11.95
2023-02-11T06:37:18.688Z,9.8375
2023-02-11T06:41:18.398Z,10.25
2023-02-11T06:44:17.468Z,8.725
2023-02-11T06:47:18.576Z,7.575
2023-02-11T06:51:17.770Z,7.75
2023-02-11T06:54:17.050Z,6.3375
2023-02-11T06:57:17.690Z,8.2625
2023-02-11T07:01:20.169Z,8.95
2023-02-11T07:04:17.478Z,8.7875
2023-02-11T07:07:17.237Z,11.25
2023-02-11T07:11:19.872Z,11.525
2023-02-11T07:14:17.526Z,9.7625
2023-02-11T07:17:17.469Z,9.475
2023-02-11T07:21:19.686Z,10.5125
2023-02-11T07:24:17.878Z,7.5625
2023-02-11T07:27:16.722Z,7.950000000000001
2023-02-11T07:31:19.562Z,11.6
2023-02-11T07:34:16.871Z,11.725
2023-02-11T07:37:16.695Z,9.15
2023-02-11T07:41:20.203Z,11.1125
2023-02-11T07:44:17.739Z,15.0375
2023-02-11T07:47:17.623Z,19.6625
2023-02-11T07:51:18.505Z,21.5625
2023-02-11T07:54:17.552Z,17.5375
2023-02-11T07:57:17.047Z,12.275
2023-02-11T08:01:20.286Z,11.75
2023-02-11T08:04:18.567Z,11.6125
2023-02-11T08:07:17.246Z,11.175
2023-02-11T08:11:19.303Z,11.125
2023-02-11T08:14:18.987Z,8.8125
2023-02-11T08:17:18.790Z,22.45
2023-02-11T08:21:19.330Z,14.775
2023-02-11T08:24:17.973Z,11.325000000000001
2023-02-11T08:27:20.732Z,11.525
2023-02-11T08:31:21.907Z,10.850000000000001
2023-02-11T08:34:19.418Z,13.95
2023-02-11T08:37:18.565Z,12.8875
2023-02-11T08:41:17.215Z,9.9875
2023-02-11T08:44:18.560Z,10.087499999999999
2023-02-11T08:47:16.847Z,15.3
2023-02-11T08:51:22.706Z,10.962499999999999
2023-02-11T08:54:19.246Z,11.8625
2023-02-11T08:57:17.698Z,9.399999999999999
2023-02-11T09:01:21.113Z,10.087499999999999
2023-02-11T09:04:17.565Z,14.399999999999999
2023-02-11T09:07:17.323Z,11.475000000000001
2023-02-11T09:11:19.364Z,12.5875
2023-02-11T09:14:19.666Z,9.225
2023-02-11T09:17:16.906Z,8.6625
2023-02-11T09:21:19.309Z,10.9875
2023-02-11T09:24:20.251Z,12.7
2023-02-11T09:27:17.148Z,14.525
2023-02-11T09:31:22.286Z,16.325
2023-02-11T09:34:17.637Z,15.600000000000001
2023-02-11T09:37:17.467Z,16.45
2023-02-11T09:41:32.213Z,15.962499999999999
2023-02-11T09:44:20.461Z,13.5625
2023-02-11T09:47:26.824Z,15.75
2023-02-11T09:51:20.092Z,20.3125
2023-02-11T09:54:25.227Z,16.7625
2023-02-11T09:57:28.153Z,15.8875
2023-02-11T10:01:34.673Z,22.4
2023-02-11T10:04:28.988Z,15.525
2023-02-11T10:07:24.980Z,19.012500000000003
2023-02-11T10:11:31.510Z,16.95
2023-02-11T10:14:29.579Z,17.275
2023-02-11T10:17:28.962Z,16.9375
2023-02-11T10:21:25.115Z,17.450000000000003
2023-02-11T10:24:18.052Z,14.225000000000001
2023-02-11T10:27:21.143Z,16.1625
2023-02-11T10:31:23.337Z,18.012500000000003
2023-02-11T10:34:17.495Z,13.875
2023-02-11T10:37:17.444Z,14.237499999999999
2023-02-11T10:41:20.694Z,13.2375
2023-02-11T10:44:24.237Z,14.9
2023-02-11T10:47:21.648Z,10.375
2023-02-11T10:51:20.187Z,11.8375
2023-02-11T10:54:19.801Z,9.837499999999999
2023-02-11T10:57:18.790Z,9
2023-02-11T11:01:24.219Z,10.35
2023-02-11T11:04:38.832Z,11.100000000000001
2023-02-11T11:07:20.765Z,11.25
2023-02-11T11:11:18.789Z,11.95
2023-02-11T11:14:19.146Z,9.95
2023-02-11T11:17:18.363Z,11.05
2023-02-11T11:21:20.750Z,14.35
2023-02-11T11:24:20.233Z,8.075
2023-02-11T11:27:19.449Z,8.5125
2023-02-11T11:31:23.698Z,11.775
2023-02-11T11:34:26.302Z,11.25
2023-02-11T11:37:23.591Z,10.5125
2023-02-11T11:41:20.592Z,8.9875
2023-02-11T11:44:23.889Z,10.75
2023-02-11T11:47:25.512Z,10.837499999999999
2023-02-11T11:51:16.915Z,9.424999999999999
2023-02-11T11:54:19.574Z,9.1875
2023-02-11T11:57:21.971Z,7.7375
2023-02-11T12:01:27.718Z,10.950000000000001
2023-02-11T12:04:32.783Z,10.425
2023-02-11T12:07:27.562Z,7.3375
2023-02-11T12:11:25.274Z,7.6625
2023-02-11T12:14:27.655Z,8.8
2023-02-11T12:17:30.923Z,7.65
2023-02-11T12:21:28.032Z,6.975
2023-02-11T12:24:30.199Z,8.237499999999999
2023-02-11T12:27:22.756Z,6.325
2023-02-11T12:31:31.051Z,7.9
2023-02-11T12:34:33.921Z,8.5
2023-02-11T12:37:28.943Z,7.3375
2023-02-11T12:41:31.124Z,7.812500000000001
2023-02-11T12:44:32.694Z,7.487500000000001
2023-02-11T12:47:26.422Z,9.9875
2023-02-11T12:51:28.549Z,10.25
2023-02-11T12:54:23.647Z,7.199999999999999
2023-02-11T12:57:21.676Z,9.600000000000001
2023-02-11T13:01:21.683Z,8.662500000000001
2023-02-11T13:04:23.134Z,7.425
2023-02-11T13:07:25.310Z,8.762500000000001
2023-02-11T13:11:22.166Z,7.775
2023-02-11T13:14:24.029Z,7.875
2023-02-11T13:17:25.090Z,6.6875
2023-02-11T13:21:29.324Z,10.3125
2023-02-11T13:24:27.650Z,8.3
2023-02-11T13:27:29.475Z,7.9875
2023-02-11T13:31:20.688Z,9.2875
2023-02-11T13:34:26.302Z,7.15
2023-02-11T13:37:22.252Z,7.237500000000001
2023-02-11T13:41:19.535Z,8.4875
2023-02-11T13:44:26.044Z,6.575
2023-02-11T13:47:27.043Z,6.9375
2023-02-11T13:51:32.892Z,5.95
2023-02-11T13:54:25.566Z,8.4375
2023-02-11T13:58:16.630Z,5.9625
2023-02-11T14:01:39.200Z,6.4875
2023-02-11T14:21:20.026Z,6.1625
2023-02-11T14:24:54.160Z,7.137499999999999
2023-02-11T14:27:28.568Z,5.0375
2023-02-11T14:31:21.674Z,8.975000000000001
2023-02-11T14:34:35.722Z,7.05
2023-02-11T14:37:27.560Z,8.087499999999999
2023-02-11T14:41:21.640Z,7.55
2023-02-11T14:44:21.500Z,9.3625
2023-02-11T14:47:21.628Z,8.6125
2023-02-11T14:51:21.217Z,8.7
2023-02-11T14:54:21.093Z,8.325
2023-02-11T14:57:19.449Z,6.1625
2023-02-11T15:01:28.127Z,6.05
2023-02-11T15:04:25.371Z,8.5375
2023-02-11T15:07:18.008Z,7.7875
2023-02-11T15:11:19.669Z,7.487500000000001
2023-02-11T15:14:22.886Z,15.175
2023-02-11T15:17:24.923Z,24.3875
2023-02-11T15:21:21.328Z,15.9875
2023-02-11T15:24:25.060Z,9.725000000000001
2023-02-11T15:27:17.809Z,9.125
2023-02-11T15:31:19.415Z,10.2125
2023-02-11T15:34:19.177Z,13.399999999999999
2023-02-11T15:37:21.228Z,12.3375
2023-02-11T15:41:34.953Z,12.462500000000002
2023-02-11T15:44:32.526Z,15.4
2023-02-11T15:47:19.982Z,12
2023-02-11T15:51:20.910Z,18.55
2023-02-11T15:54:19.773Z,18.275
2023-02-11T15:57:21.388Z,25.325000000000003
2023-02-11T16:01:16.648Z,22.1
2023-02-11T16:04:19.043Z,17.637500000000003
2023-02-11T16:07:38.377Z,19.7
2023-02-11T16:11:25.870Z,14.8
2023-02-11T16:14:22.713Z,14.6
2023-02-11T16:17:26.139Z,11.9
2023-02-11T16:21:19.104Z,15.950000000000003
2023-02-11T16:24:19.606Z,13.1125
2023-02-11T16:27:22.946Z,17.225
2023-02-11T16:31:17.117Z,14.95
2023-02-11T16:34:19.609Z,16.1125
2023-02-11T16:37:16.731Z,14.924999999999999
2023-02-11T16:41:16.492Z,17.65
2023-02-11T16:44:16.886Z,16.512500000000003
2023-02-11T16:47:21.565Z,14.2875
2023-02-11T16:51:16.385Z,12.5625
2023-02-11T16:54:17.647Z,11.5
2023-02-11T16:57:18.963Z,12.55
2023-02-11T17:01:17.904Z,14.362499999999999
2023-02-11T17:04:20.712Z,16.5625
2023-02-11T17:07:17.146Z,12.95
2023-02-11T17:11:17.871Z,16.337500000000002
2023-02-11T17:14:17.071Z,15.462500000000002
2023-02-11T17:17:16.813Z,14.362499999999999
2023-02-11T17:21:16.926Z,18.4
2023-02-11T17:24:17.515Z,17.612499999999997
2023-02-11T17:27:17.564Z,18.7625
2023-02-11T17:31:17.027Z,47.55
2023-02-11T17:34:17.913Z,38.675000000000004
2023-02-11T17:37:16.936Z,60.5625
2023-02-11T17:41:17.279Z,51.775000000000006
2023-02-11T17:44:17.645Z,28.762500000000003
2023-02-11T17:47:17.378Z,29.075000000000003
2023-02-11T17:51:21.816Z,29.3875
2023-02-11T17:54:19.156Z,16.775
2023-02-11T17:57:17.098Z,17.975
2023-02-11T18:01:16.586Z,18.887500000000003
2023-02-11T18:04:18.570Z,17.537499999999998
2023-02-11T18:07:17.128Z,22.8
2023-02-11T18:11:17.966Z,19.8
2023-02-11T18:14:16.703Z,16.5
2023-02-11T18:17:16.695Z,24.7625
2023-02-11T18:21:18.525Z,21.575
2023-02-11T18:24:18.094Z,14.825
2023-02-11T18:27:16.566Z,15.712499999999999
2023-02-11T18:31:17.051Z,22.637500000000003
2023-02-11T18:34:17.388Z,19.662499999999998
2023-02-11T18:37:16.961Z,22.825000000000003
2023-02-11T18:41:16.738Z,28.825
2023-02-11T18:44:22.453Z,33.162499999999994
2023-02-11T18:47:17.034Z,28.962500000000002
2023-02-11T18:51:17.933Z,22.3
2023-02-11T18:54:16.844Z,18.9
2023-02-11T18:57:16.829Z,25.787499999999998
2023-02-11T19:01:24.779Z,21.175
2023-02-11T19:04:20.426Z,24.375
2023-02-11T19:07:23.793Z,24.8125
2023-02-11T19:11:19.633Z,26.35
2023-02-11T19:14:21.043Z,28.099999999999998
2023-02-11T19:17:17.248Z,29.775
2023-02-11T19:21:16.965Z,61.5625
2023-02-11T19:24:20.990Z,51.6875
2023-02-11T19:27:17.220Z,34.025
2023-02-11T19:31:16.205Z,38.6875
2023-02-11T19:34:18.960Z,32.9
2023-02-11T19:37:16.649Z,23.125
2023-02-11T19:41:17.007Z,25.0125
2023-02-11T19:44:17.786Z,21
2023-02-11T19:47:17.339Z,24
2023-02-11T19:51:17.087Z,20.7125
2023-02-11T19:54:16.600Z,20.3375
2023-02-11T19:57:16.727Z,30.95
2023-02-11T20:01:20.070Z,33.6
2023-02-11T20:04:17.384Z,43.525
2023-02-11T20:07:17.439Z,36.95
2023-02-11T20:11:17.006Z,28.162499999999998
2023-02-11T20:14:17.250Z,27.512500000000003
2023-02-11T20:17:16.907Z,25.6625
2023-02-11T20:21:18.305Z,23.55
2023-02-11T20:24:18.154Z,19.775
2023-02-11T20:27:18.422Z,19.662499999999998
2023-02-11T20:31:17.676Z,14.8
2023-02-11T20:34:18.144Z,19.575000000000003
2023-02-11T20:37:17.807Z,17.3
2023-02-11T20:41:18.760Z,20.3875
2023-02-11T20:44:16.529Z,21.6
2023-02-11T20:47:16.577Z,18.2625
2023-02-11T20:51:19.715Z,19.0125
2023-02-11T20:54:19.793Z,15.725000000000001
2023-02-11T20:57:16.927Z,21.25
2023-02-11T21:01:20.616Z,21.0875
2023-02-11T21:04:21.388Z,23.0625
2023-02-11T21:07:18.106Z,24.25
2023-02-11T21:11:16.288Z,26.525
2023-02-11T21:14:18.859Z,28.5875
2023-02-11T21:17:16.896Z,25.299999999999997
2023-02-11T21:21:16.926Z,28.95
2023-02-11T21:24:16.484Z,21.625
2023-02-11T21:27:16.260Z,17.125
2023-02-11T21:31:19.471Z,17.3125
2023-02-11T21:34:16.480Z,14.7125
2023-02-11T21:37:16.523Z,15.825000000000001
2023-02-11T21:41:16.960Z,15.637500000000001
2023-02-11T21:44:16.663Z,16.025
2023-02-11T21:47:16.645Z,11.4125
2023-02-11T21:51:18.901Z,18.8875
2023-02-11T21:54:18.785Z,13.2
2023-02-11T21:57:17.534Z,17.0625
2023-02-11T22:01:17.277Z,13.8875
2023-02-11T22:04:17.280Z,15.837499999999999
2023-02-11T22:07:16.271Z,19.4375
2023-02-11T22:11:16.793Z,18.175
2023-02-11T22:14:17.237Z,12.2625
2023-02-11T22:17:17.003Z,13.274999999999999
2023-02-11T22:21:19.514Z,14.1875
2023-02-11T22:24:16.816Z,12.9875
2023-02-11T22:27:20.116Z,19.875
2023-02-11T22:31:17.812Z,14.7625
2023-02-11T22:34:15.946Z,17.575000000000003
2023-02-11T22:37:16.052Z,15.2125
2023-02-11T22:41:17.715Z,11.2625
2023-02-11T22:44:17.392Z,21
2023-02-11T22:47:16.488Z,10.8125
2023-02-11T22:51:18.555Z,14.6875
2023-02-11T22:54:18.186Z,14.4375
2023-02-11T22:57:16.382Z,11
2023-02-11T23:01:17.506Z,11.975
2023-02-11T23:04:17.294Z,11.75
2023-02-11T23:07:16.404Z,11.475000000000001
2023-02-11T23:11:18.610Z,14.225000000000001
2023-02-11T23:14:16.277Z,13.912500000000001
2023-02-11T23:17:16.526Z,10.275
2023-02-11T23:21:19.144Z,10.762500000000001
2023-02-11T23:24:16.575Z,10.075000000000001
2023-02-11T23:27:16.230Z,10.1125
2023-02-11T23:31:18.360Z,9.75
2023-02-11T23:34:17.423Z,11.2625
2023-02-11T23:37:16.595Z,14.025
2023-02-11T23:41:16.781Z,19.475
2023-02-11T23:44:16.591Z,13.6875
2023-02-11T23:47:16.693Z,11.462499999999999
2023-02-11T23:51:17.690Z,10.35
2023-02-11T23:54:16.878Z,7.275
2023-02-11T23:57:17.054Z,11.325
